Time;durP1;ratioP1;P1;durP2;ratioP2;P2;SDS_P1;SDS_P2;PMS_P1;PMS_P2;Temp;Humidity;BMP_temperature;BMP_pressure;BME280_temperature;BME280_humidity;BME280_pressure;Samples;Min_cycle;Max_cycle;Signal;HPM_P1;HPM_P2
2021/08/21 00:33:15;;;;;;;10.63;9.53;;;17.20;1.00;;;;;;4997775;28;20466;-90
2021/08/21 00:38:27;;;;;;;10.33;9.43;;;17.10;1.00;;;;;;4973780;28;21095;-84
2021/08/21 00:40:54;;;;;;;10.77;9.87;;;17.10;1.00;;;;;;4973309;28;20455;-87
2021/08/21 00:43:22;;;;;;;10.10;9.13;;;17.10;1.00;;;;;;4995077;28;20452;-86
2021/08/21 00:45:54;;;;;;;9.27;8.47;;;17.10;1.00;;;;;;4973935;28;20448;-90
2021/08/21 00:48:22;;;;;;;9.80;8.80;;;17.20;1.00;;;;;;4979221;28;20896;-83
2021/08/21 00:50:49;;;;;;;10.17;9.17;;;17.30;1.00;;;;;;4975696;28;20471;-88
2021/08/21 00:53:19;;;;;;;9.87;8.97;;;17.40;1.00;;;;;;4976432;28;20487;-91
2021/08/21 00:55:52;;;;;;;9.63;8.67;;;17.40;1.00;;;;;;4981610;28;20447;-87
2021/08/21 01:04:31;;;;;;;8.97;8.07;;;17.60;1.00;;;;;;5311291;23;20449;-87
2021/08/21 01:10:04;;;;;;;9.27;8.40;;;17.60;1.00;;;;;;4961595;28;20452;-86
2021/08/21 01:12:34;;;;;;;8.97;8.07;;;17.70;1.00;;;;;;4960241;28;20441;-92
2021/08/21 01:15:12;;;;;;;9.20;8.40;;;17.70;1.00;;;;;;4976685;28;20432;-92
2021/08/21 01:17:41;;;;;;;7.77;7.07;;;17.70;1.00;;;;;;5566689;23;20423;-90
2021/08/21 01:42:17;;;;;;;9.70;8.70;;;17.70;1.00;;;;;;6180735;22;20405;-91
2021/08/21 01:50:09;;;;;;;8.23;7.53;;;17.80;1.00;;;;;;6227319;22;20388;-88
2021/08/21 01:55:36;;;;;;;10.47;9.43;;;17.80;1.00;;;;;;6247195;22;20455;-91
2021/08/21 01:58:06;;;;;;;9.67;7.80;;;17.80;1.00;;;;;;6248951;23;20447;-88
2021/08/21 02:06:21;;;;;;;9.70;8.80;;;17.90;1.00;;;;;;6247262;23;20462;-92
2021/08/21 02:08:48;;;;;;;9.63;8.73;;;17.90;1.00;;;;;;6239370;22;20410;-89
2021/08/21 02:11:34;;;;;;;9.33;8.50;;;17.80;1.00;;;;;;6224221;23;20478;-92
2021/08/21 02:14:02;;;;;;;9.80;8.77;;;17.80;1.00;;;;;;6228063;22;20380;-91
2021/08/21 02:21:46;;;;;;;9.10;8.00;;;17.80;1.00;;;;;;6232463;22;20388;-91
2021/08/21 02:30:19;;;;;;;9.53;8.63;;;17.70;1.00;;;;;;6248207;22;20392;-91
2021/08/21 02:35:28;;;;;;;9.80;8.90;;;17.80;1.00;;;;;;6213076;23;20370;-89
2021/08/21 02:37:57;;;;;;;9.63;8.60;;;17.80;1.00;;;;;;6208336;23;20797;-89
2021/08/21 02:40:27;;;;;;;9.73;8.73;;;17.80;1.00;;;;;;6211133;23;20380;-90
2021/08/21 02:46:08;;;;;;;10.33;9.50;;;17.70;1.00;;;;;;6211309;23;20396;-88
2021/08/21 02:48:38;;;;;;;9.90;8.90;;;17.70;1.00;;;;;;6205326;23;20416;-90
2021/08/21 02:51:11;;;;;;;10.60;9.60;;;17.60;1.00;;;;;;6185511;23;20489;-92
2021/08/21 02:53:41;;;;;;;9.67;8.73;;;17.60;1.00;;;;;;6210199;23;20380;-90
2021/08/21 02:56:17;;;;;;;9.40;8.50;;;17.50;1.00;;;;;;6187788;23;20446;-90
2021/08/21 03:04:18;;;;;;;11.07;10.03;;;17.30;1.00;;;;;;6211280;22;20387;-86
2021/08/21 03:06:55;;;;;;;11.33;10.33;;;17.30;1.00;;;;;;6220585;23;20415;-91
2021/08/21 03:09:25;;;;;;;10.50;9.60;;;17.10;1.00;;;;;;6212539;23;20486;-89
2021/08/21 03:14:56;;;;;;;11.00;10.00;;;17.00;1.00;;;;;;6230089;22;20391;-87
2021/08/21 03:17:29;;;;;;;10.37;9.53;;;16.80;1.00;;;;;;6218705;22;20861;-91
2021/08/21 03:19:56;;;;;;;11.27;9.93;;;16.80;1.00;;;;;;6250248;22;20419;-92
2021/08/21 03:22:24;;;;;;;10.93;9.90;;;16.80;1.00;;;;;;6246950;22;20646;-92
2021/08/21 03:24:52;;;;;;;11.20;10.13;;;16.70;1.00;;;;;;6218210;23;20391;-92
2021/08/21 03:27:19;;;;;;;11.90;10.70;;;16.70;1.00;;;;;;6209471;23;20447;-88
2021/08/21 03:29:46;;;;;;;11.87;10.87;;;16.60;1.00;;;;;;6232854;23;20369;-86
2021/08/21 03:32:16;;;;;;;11.30;10.30;;;16.60;1.00;;;;;;6206078;23;20424;-88
2021/08/21 03:34:44;;;;;;;11.00;10.00;;;16.50;1.00;;;;;;6203891;23;20436;-90
2021/08/21 03:37:13;;;;;;;17.37;12.00;;;16.50;1.00;;;;;;6231393;23;20493;-89
2021/08/21 03:39:41;;;;;;;12.10;11.00;;;16.40;1.00;;;;;;6230686;23;20379;-91
2021/08/21 03:42:09;;;;;;;11.57;10.50;;;16.40;1.00;;;;;;6203759;23;20418;-91
2021/08/21 03:44:36;;;;;;;13.23;12.03;;;16.30;1.00;;;;;;6205769;23;20440;-88
2021/08/21 03:47:04;;;;;;;12.60;11.30;;;16.30;1.00;;;;;;6215189;22;20424;-91
2021/08/21 03:49:32;;;;;;;12.53;11.23;;;16.20;1.00;;;;;;6247408;22;20433;-92
2021/08/21 03:52:02;;;;;;;11.43;10.33;;;16.10;1.00;;;;;;6238394;22;20411;-89
2021/08/21 03:54:29;;;;;;;12.37;11.23;;;16.10;1.00;;;;;;6235002;22;20408;-88
2021/08/21 03:59:42;;;;;;;11.23;10.13;;;15.90;1.00;;;;;;6204462;23;20377;-89
2021/08/21 04:02:11;;;;;;;12.87;11.77;;;15.80;1.00;;;;;;6207009;23;20407;-86
2021/08/21 04:04:39;;;;;;;11.47;10.27;;;15.80;1.00;;;;;;6206563;23;20470;-87
2021/08/21 04:07:07;;;;;;;14.27;12.27;;;15.80;1.00;;;;;;6206011;23;20427;-81
2021/08/21 04:09:34;;;;;;;13.80;12.10;;;15.80;1.00;;;;;;6227878;23;21229;-81
2021/08/21 04:12:01;;;;;;;13.43;12.03;;;15.80;1.00;;;;;;6199320;23;20448;-81
2021/08/21 04:14:27;;;;;;;12.83;11.50;;;15.80;1.00;;;;;;6226390;23;20398;-82
2021/08/21 04:16:54;;;;;;;13.43;12.03;;;15.70;1.00;;;;;;6228274;23;20368;-82
2021/08/21 04:19:21;;;;;;;15.67;12.93;;;15.70;1.00;;;;;;6202832;23;20380;-83
2021/08/21 04:21:47;;;;;;;13.23;12.07;;;15.70;1.00;;;;;;6229498;23;20412;-83
2021/08/21 04:24:15;;;;;;;15.87;14.33;;;15.80;1.00;;;;;;6203811;23;21553;-83
2021/08/21 04:26:42;;;;;;;13.50;12.20;;;15.70;1.00;;;;;;6244604;22;20411;-81
2021/08/21 04:29:13;;;;;;;15.43;13.90;;;15.70;1.00;;;;;;6219000;22;20359;-80
2021/08/21 04:31:40;;;;;;;14.27;12.87;;;15.70;1.00;;;;;;6244244;22;20372;-81
2021/08/21 04:34:09;;;;;;;15.87;14.40;;;15.70;1.00;;;;;;6211690;23;20384;-82
2021/08/21 04:36:36;;;;;;;12.60;11.50;;;15.70;1.00;;;;;;6207717;23;20410;-82
2021/08/21 04:39:03;;;;;;;13.70;12.40;;;15.70;1.00;;;;;;6206513;23;20402;-81
2021/08/21 04:41:31;;;;;;;13.20;11.90;;;15.80;1.00;;;;;;6234898;23;20391;-82
2021/08/21 04:43:58;;;;;;;13.17;11.97;;;15.80;1.00;;;;;;6233922;23;20503;-82
2021/08/21 04:46:25;;;;;;;13.63;12.30;;;15.90;1.00;;;;;;6234384;23;20446;-81
2021/08/21 04:48:54;;;;;;;12.57;11.40;;;16.00;1.00;;;;;;6244379;22;20376;-81
2021/08/21 04:51:20;;;;;;;12.47;11.27;;;16.10;1.00;;;;;;6244975;22;20395;-81
2021/08/21 04:53:47;;;;;;;12.27;11.10;;;16.10;1.00;;;;;;6236405;22;20381;-81
2021/08/21 04:56:14;;;;;;;14.30;12.90;;;16.20;1.00;;;;;;6237181;23;20405;-82
2021/08/21 04:58:42;;;;;;;13.00;11.80;;;16.30;1.00;;;;;;6233562;23;20471;-83
2021/08/21 05:01:09;;;;;;;13.10;11.43;;;16.30;1.00;;;;;;6235165;23;20400;-82
2021/08/21 05:03:36;;;;;;;12.80;11.70;;;16.40;1.00;;;;;;6236255;23;20363;-82
2021/08/21 05:06:03;;;;;;;13.60;12.30;;;16.40;1.00;;;;;;6243643;22;20436;-81
2021/08/21 05:08:29;;;;;;;13.53;11.90;;;16.50;1.00;;;;;;6248199;22;20347;-81
2021/08/21 05:10:56;;;;;;;12.63;11.43;;;16.60;1.00;;;;;;6244175;22;20416;-84
2021/08/21 05:13:23;;;;;;;13.63;12.40;;;16.60;1.00;;;;;;6247322;22;20407;-81
2021/08/21 05:15:51;;;;;;;12.80;11.47;;;16.70;1.00;;;;;;6244412;22;20368;-84
2021/08/21 05:18:24;;;;;;;13.43;12.23;;;16.80;1.00;;;;;;6246166;22;20371;-82
2021/08/21 05:20:52;;;;;;;12.47;11.40;;;16.90;1.00;;;;;;6248950;22;20376;-81
2021/08/21 05:23:20;;;;;;;12.60;11.57;;;17.10;1.00;;;;;;6247460;22;20420;-82
2021/08/21 05:25:48;;;;;;;13.40;12.20;;;17.10;1.00;;;;;;6247971;22;20642;-82
2021/08/21 05:28:16;;;;;;;13.70;11.20;;;17.20;1.00;;;;;;6247925;22;20391;-82
2021/08/21 05:30:43;;;;;;;14.20;12.63;;;17.20;1.00;;;;;;6248095;22;20382;-86
2021/08/21 05:33:13;;;;;;;13.30;12.00;;;17.20;1.00;;;;;;6248325;22;20383;-80
2021/08/21 05:35:40;;;;;;;15.03;12.60;;;17.20;1.00;;;;;;6247965;22;20361;-80
2021/08/21 05:38:07;;;;;;;12.77;11.33;;;17.20;1.00;;;;;;6248420;22;20353;-81
2021/08/21 05:40:34;;;;;;;13.70;12.40;;;17.20;1.00;;;;;;6248291;22;20386;-81
2021/08/21 05:43:02;;;;;;;14.67;12.60;;;17.20;1.00;;;;;;6246771;22;20461;-81
2021/08/21 05:45:28;;;;;;;17.40;12.33;;;17.20;1.00;;;;;;6247245;22;20997;-82
2021/08/21 05:47:56;;;;;;;14.50;13.00;;;17.20;1.00;;;;;;6248203;22;20380;-82
2021/08/21 05:50:24;;;;;;;15.63;13.17;;;17.30;1.00;;;;;;6248335;22;20424;-83
2021/08/21 05:52:51;;;;;;;16.60;13.77;;;17.40;1.00;;;;;;6220740;22;20436;-84
2021/08/21 05:55:18;;;;;;;21.20;19.30;;;17.50;1.00;;;;;;6222073;22;20365;-83
2021/08/21 05:57:45;;;;;;;15.90;14.50;;;17.70;1.00;;;;;;6221949;22;20369;-84
2021/08/21 06:00:16;;;;;;;15.57;14.17;;;17.80;1.00;;;;;;6221509;22;20369;-84
2021/08/21 06:02:43;;;;;;;15.27;13.87;;;17.90;1.00;;;;;;6248013;22;20397;-84
2021/08/21 06:05:13;;;;;;;16.03;14.43;;;17.90;1.00;;;;;;6246896;22;20388;-83
2021/08/21 06:07:41;;;;;;;20.17;18.47;;;18.00;1.00;;;;;;6220761;23;20364;-84
2021/08/21 06:10:09;;;;;;;17.10;15.40;;;18.00;1.00;;;;;;6221394;22;20439;-83
2021/08/21 06:12:37;;;;;;;20.50;18.70;;;18.10;1.00;;;;;;6248469;22;20395;-81
2021/08/21 06:15:07;;;;;;;15.40;14.00;;;18.20;1.00;;;;;;6221313;23;20380;-84
2021/08/21 06:17:33;;;;;;;14.87;13.43;;;18.20;1.00;;;;;;6222199;22;20352;-84
2021/08/21 06:20:03;;;;;;;16.83;14.63;;;18.30;1.00;;;;;;6221708;23;20431;-86
2021/08/21 06:22:30;;;;;;;15.27;13.87;;;18.30;1.00;;;;;;6247164;22;20385;-87
2021/08/21 06:24:58;;;;;;;15.47;13.97;;;18.30;1.00;;;;;;6244117;22;20408;-87
2021/08/21 06:27:25;;;;;;;16.47;15.07;;;18.30;1.00;;;;;;6244453;22;20473;-86
2021/08/21 06:29:51;;;;;;;16.27;14.77;;;18.30;1.00;;;;;;6214647;22;20396;-84
2021/08/21 06:32:18;;;;;;;14.30;13.00;;;18.40;1.00;;;;;;6197736;23;20407;-84
2021/08/21 06:34:45;;;;;;;15.70;14.30;;;18.40;1.00;;;;;;6216649;22;20427;-80
2021/08/21 06:37:12;;;;;;;15.37;13.97;;;18.50;1.00;;;;;;6217523;23;20521;-82
2021/08/21 06:39:39;;;;;;;15.33;14.00;;;18.50;1.00;;;;;;6216677;23;20405;-81
2021/08/21 06:42:07;;;;;;;14.17;12.87;;;18.60;1.00;;;;;;6218694;23;20428;-82
2021/08/21 06:44:37;;;;;;;15.70;14.30;;;18.90;1.00;;;;;;6189904;23;20381;-82
2021/08/21 06:47:05;;;;;;;15.87;14.47;;;18.90;1.00;;;;;;6193604;23;20372;-82
2021/08/21 06:49:32;;;;;;;15.73;14.17;;;19.00;1.00;;;;;;6221391;23;20445;-81
2021/08/21 06:51:59;;;;;;;14.77;13.37;;;18.90;1.00;;;;;;6197553;23;20374;-82
2021/08/21 06:54:25;;;;;;;15.33;14.00;;;19.00;1.00;;;;;;6230812;23;20377;-82
2021/08/21 06:56:53;;;;;;;14.37;13.03;;;19.10;1.00;;;;;;6247242;22;20357;-83
2021/08/21 06:59:21;;;;;;;14.20;12.90;;;19.20;1.00;;;;;;6239277;22;20401;-83
2021/08/21 07:01:48;;;;;;;14.67;13.27;;;19.20;1.00;;;;;;6203355;23;20405;-83
2021/08/21 07:04:15;;;;;;;14.20;12.90;;;19.30;1.00;;;;;;6239876;22;20413;-80
2021/08/21 07:06:42;;;;;;;14.27;13.03;;;19.30;1.00;;;;;;6247337;22;20388;-82
2021/08/21 07:09:09;;;;;;;15.20;13.70;;;19.40;1.00;;;;;;6221940;22;20378;-83
2021/08/21 07:11:36;;;;;;;15.47;13.93;;;19.40;1.00;;;;;;6245800;22;20362;-85
2021/08/21 07:14:03;;;;;;;14.20;12.97;;;19.50;1.00;;;;;;6229366;22;20428;-83
2021/08/21 07:16:34;;;;;;;14.37;12.87;;;19.70;1.00;;;;;;6202517;23;20405;-82
2021/08/21 07:19:01;;;;;;;14.63;13.20;;;19.80;1.00;;;;;;6230394;23;20417;-82
2021/08/21 07:21:28;;;;;;;14.73;13.33;;;19.90;1.00;;;;;;6206471;23;20481;-81
2021/08/21 07:23:55;;;;;;;14.50;10.87;;;20.00;1.00;;;;;;6237007;22;20386;-82
2021/08/21 07:26:22;;;;;;;13.90;12.60;;;20.30;1.00;;;;;;6237345;23;20401;-82
2021/08/21 07:28:49;;;;;;;13.27;11.90;;;20.40;1.00;;;;;;6248265;22;20397;-84
2021/08/21 07:31:16;;;;;;;13.40;12.10;;;20.70;1.00;;;;;;6221825;22;20404;-82
2021/08/21 07:33:45;;;;;;;12.17;10.80;;;20.80;1.00;;;;;;6222572;22;20387;-81
2021/08/21 07:36:12;;;;;;;12.40;11.30;;;20.90;1.00;;;;;;6247506;22;20351;-84
2021/08/21 07:38:38;;;;;;;11.93;10.67;;;21.00;1.00;;;;;;6249539;22;20480;-84
2021/08/21 07:41:07;;;;;;;13.50;11.00;;;20.90;1.00;;;;;;6248004;22;20366;-82
2021/08/21 07:43:34;;;;;;;11.27;10.17;;;21.00;1.00;;;;;;6247421;22;20382;-81
2021/08/21 07:46:01;;;;;;;16.80;11.67;;;21.00;1.00;;;;;;6247158;22;20370;-84
2021/08/21 07:48:28;;;;;;;12.17;11.07;;;21.20;1.00;;;;;;6248507;22;20367;-81
2021/08/21 07:50:56;;;;;;;10.13;9.13;;;21.30;1.00;;;;;;6246991;22;20397;-82
2021/08/21 07:53:25;;;;;;;10.50;9.50;;;21.20;1.00;;;;;;6246110;22;20359;-82
2021/08/21 07:55:51;;;;;;;11.80;10.80;;;21.40;1.00;;;;;;6218709;23;20407;-82
2021/08/21 07:58:18;;;;;;;9.83;8.93;;;21.50;1.00;;;;;;6215862;22;20454;-80
2021/08/21 08:00:45;;;;;;;11.07;9.70;;;21.60;1.00;;;;;;6245499;22;20762;-85
2021/08/21 08:03:14;;;;;;;10.63;9.70;;;21.80;1.00;;;;;;6238821;22;20368;-84
2021/08/21 08:05:41;;;;;;;10.93;9.93;;;22.10;1.00;;;;;;6247316;22;20369;-84
2021/08/21 08:08:13;;;;;;;10.27;9.33;;;22.20;1.00;;;;;;6226479;22;20736;-83
2021/08/21 08:10:40;;;;;;;10.10;9.20;;;22.40;1.00;;;;;;6238589;22;20361;-79
2021/08/21 08:13:07;;;;;;;8.93;8.10;;;22.60;1.00;;;;;;6210477;23;20414;-80
2021/08/21 08:15:34;;;;;;;9.83;8.83;;;22.60;1.00;;;;;;6208839;22;20393;-78
2021/08/21 08:18:01;;;;;;;10.00;9.00;;;22.60;1.00;;;;;;6179355;23;20471;-77
2021/08/21 08:20:28;;;;;;;10.50;9.50;;;22.50;1.00;;;;;;6207094;22;20413;-78
2021/08/21 08:22:58;;;;;;;11.03;10.03;;;22.40;1.00;;;;;;6205148;22;20366;-77
2021/08/21 08:25:27;;;;;;;11.77;10.57;;;22.40;1.00;;;;;;6171452;23;20616;-80
2021/08/21 08:27:54;;;;;;;12.23;11.03;;;22.30;1.00;;;;;;6195781;23;20480;-79
2021/08/21 08:30:21;;;;;;;10.60;9.70;;;22.30;1.00;;;;;;6204137;22;20373;-78
2021/08/21 08:32:48;;;;;;;11.57;10.40;;;22.20;1.00;;;;;;6205634;23;20404;-78
2021/08/21 08:35:14;;;;;;;11.93;10.90;;;22.20;1.00;;;;;;6205921;23;20384;-78
2021/08/21 08:37:42;;;;;;;10.53;9.63;;;22.40;1.00;;;;;;6203238;23;20417;-79
2021/08/21 08:40:11;;;;;;;11.50;10.40;;;22.60;1.00;;;;;;6179904;23;20365;-80
2021/08/21 08:42:42;;;;;;;9.57;8.50;;;22.70;1.00;;;;;;6207320;23;21061;-77
2021/08/21 08:45:10;;;;;;;10.33;9.00;;;22.80;1.00;;;;;;6200731;23;20367;-79
2021/08/21 08:47:37;;;;;;;10.03;9.13;;;23.00;1.00;;;;;;6202029;23;20429;-78
2021/08/21 08:50:06;;;;;;;10.47;8.63;;;23.20;1.00;;;;;;6200253;23;20441;-79
2021/08/21 08:52:34;;;;;;;9.50;8.70;;;23.30;1.00;;;;;;6198919;22;20408;-79
2021/08/21 08:55:02;;;;;;;10.20;9.20;;;23.50;1.00;;;;;;6204498;23;20402;-79
2021/08/21 08:57:37;;;;;;;9.30;8.40;;;23.50;1.00;;;;;;6171374;23;20384;-79
2021/08/21 09:00:12;;;;;;;9.57;8.67;;;23.50;1.00;;;;;;6179536;23;20406;-79
2021/08/21 09:02:40;;;;;;;10.20;9.37;;;23.60;1.00;;;;;;6171676;23;20370;-79
2021/08/21 09:05:10;;;;;;;9.13;8.27;;;23.80;1.00;;;;;;6178020;23;20406;-80
2021/08/21 09:07:45;;;;;;;9.83;8.97;;;23.90;1.00;;;;;;6177873;23;20408;-81
2021/08/21 09:10:14;;;;;;;9.50;8.70;;;24.10;1.00;;;;;;6180314;23;21428;-80
2021/08/21 09:12:42;;;;;;;10.00;9.10;;;24.30;1.00;;;;;;6140186;23;20418;-80
2021/08/21 09:15:29;;;;;;;9.60;8.70;;;24.40;1.00;;;;;;6169720;23;20406;-80
2021/08/21 09:18:05;;;;;;;8.80;7.90;;;24.40;1.00;;;;;;6169872;23;20502;-80
2021/08/21 09:20:32;;;;;;;9.93;8.90;;;24.30;1.00;;;;;;6174387;23;20369;-78
2021/08/21 09:23:18;;;;;;;10.07;8.40;;;24.40;1.00;;;;;;6178315;23;20401;-79
2021/08/21 09:25:47;;;;;;;9.60;8.67;;;24.30;1.00;;;;;;6151472;23;20402;-79
2021/08/21 09:28:18;;;;;;;8.80;7.90;;;24.40;1.00;;;;;;6174257;23;20389;-78
2021/08/21 09:30:48;;;;;;;8.37;7.60;;;24.70;1.00;;;;;;6145712;23;20410;-79
2021/08/21 09:33:18;;;;;;;9.83;8.97;;;25.00;1.00;;;;;;6168788;23;20402;-79
2021/08/21 09:35:46;;;;;;;7.07;6.50;;;25.00;1.00;;;;;;6170224;23;20387;-81
2021/08/21 09:38:13;;;;;;;6.93;6.33;;;25.20;1.00;;;;;;6173023;23;20480;-81
2021/08/21 09:40:41;;;;;;;9.83;8.83;;;25.40;1.00;;;;;;6169470;23;20389;-80
2021/08/21 09:43:19;;;;;;;8.93;8.03;;;25.70;1.00;;;;;;6167879;23;20375;-79
2021/08/21 09:45:47;;;;;;;7.87;7.10;;;26.00;1.00;;;;;;6168895;23;21427;-79
2021/08/21 09:48:15;;;;;;;8.30;6.83;;;25.80;1.00;;;;;;6171386;23;20412;-79
2021/08/21 09:50:43;;;;;;;20.50;8.70;;;25.70;1.00;;;;;;6173531;23;20440;-80
2021/08/21 09:53:12;;;;;;;6.93;6.27;;;26.30;1.00;;;;;;6146485;23;20409;-82
2021/08/21 09:55:40;;;;;;;7.23;6.60;;;27.10;1.00;;;;;;6171014;23;20405;-79
2021/08/21 09:58:10;;;;;;;6.00;5.50;;;27.60;1.00;;;;;;6165111;23;20384;-80
2021/08/21 10:00:39;;;;;;;8.03;6.43;;;28.50;1.00;;;;;;6166218;23;21268;-80
2021/08/21 10:03:07;;;;;;;6.33;5.73;;;29.50;1.00;;;;;;6164645;23;21165;-81
2021/08/21 10:05:34;;;;;;;7.07;6.20;;;30.10;1.00;;;;;;6163677;23;20386;-81
2021/08/21 10:08:04;;;;;;;8.33;5.53;;;29.80;1.00;;;;;;6164808;23;20440;-80
2021/08/21 10:10:35;;;;;;;8.83;6.20;;;29.60;1.00;;;;;;6172464;23;20366;-79
2021/08/21 10:13:10;;;;;;;7.10;6.30;;;29.00;1.00;;;;;;6171604;23;20421;-79
2021/08/21 10:15:39;;;;;;;6.00;5.50;;;28.50;1.00;;;;;;6140023;23;20437;-81
2021/08/21 10:18:09;;;;;;;7.20;6.60;;;28.50;1.00;;;;;;6164985;23;20400;-79
2021/08/21 10:20:37;;;;;;;7.23;6.50;;;28.40;1.00;;;;;;6166842;23;20907;-80
2021/08/21 10:23:10;;;;;;;7.10;6.50;;;27.90;1.00;;;;;;6162606;23;20394;-80
2021/08/21 10:25:39;;;;;;;8.47;7.70;;;27.10;1.00;;;;;;6164906;23;20399;-80
2021/08/21 10:28:08;;;;;;;8.27;7.47;;;26.40;1.00;;;;;;6164843;23;21214;-79
2021/08/21 10:30:42;;;;;;;8.77;7.90;;;26.10;1.00;;;;;;6165961;23;20447;-80
2021/08/21 10:33:10;;;;;;;7.90;7.20;;;25.90;1.00;;;;;;6165175;23;20795;-80
2021/08/21 10:35:46;;;;;;;10.07;9.07;;;25.90;1.00;;;;;;6166517;23;20417;-80
2021/08/21 10:38:39;;;;;;;9.77;8.80;;;27.20;1.00;;;;;;6166382;23;21309;-79
2021/08/21 10:41:35;;;;;;;16.63;7.00;;;29.00;1.00;;;;;;6167973;23;20421;-81
2021/08/21 10:44:04;;;;;;;7.40;6.77;;;30.10;1.00;;;;;;6166336;23;20392;-80
2021/08/21 10:46:54;;;;;;;7.33;6.60;;;31.30;1.00;;;;;;6170729;23;20414;-80
2021/08/21 10:49:43;;;;;;;6.50;5.90;;;32.00;1.00;;;;;;6176402;23;20437;-80
2021/08/21 10:52:46;;;;;;;6.83;6.13;;;32.70;1.00;;;;;;6172244;23;21149;-79
2021/08/21 10:55:14;;;;;;;6.57;6.00;;;33.40;1.00;;;;;;6169962;23;21037;-78
2021/08/21 10:57:58;;;;;;;8.60;7.80;;;34.00;1.00;;;;;;6169605;23;20441;-78
2021/08/21 11:00:58;;;;;;;6.27;5.70;;;34.30;1.00;;;;;;6168832;23;20525;-79
2021/08/21 11:03:44;;;;;;;6.60;6.00;;;33.90;1.00;;;;;;6147515;23;20395;-79
2021/08/21 11:06:17;;;;;;;5.90;5.40;;;32.70;1.00;;;;;;6173878;23;20402;-80
2021/08/21 11:08:58;;;;;;;7.10;5.10;;;32.40;1.00;;;;;;6171809;23;20449;-78
2021/08/21 11:11:31;;;;;;;15.70;14.50;;;32.10;1.00;;;;;;6177659;23;20366;-83
2021/08/21 11:14:00;;;;;;;5.70;5.20;;;31.40;1.00;;;;;;6178175;23;20369;-82
2021/08/21 11:17:01;;;;;;;6.17;5.43;;;30.40;1.00;;;;;;6180546;23;20377;-82
2021/08/21 11:19:39;;;;;;;6.20;5.70;;;29.60;1.00;;;;;;6092862;23;20399;-83
2021/08/21 11:22:31;;;;;;;6.57;5.67;;;29.10;1.00;;;;;;6092838;23;20454;-81
2021/08/21 11:25:06;;;;;;;6.30;5.77;;;28.70;1.00;;;;;;6151226;23;20378;-82
2021/08/21 11:27:38;;;;;;;5.60;5.00;;;29.60;1.00;;;;;;6182949;23;20396;-81
2021/08/21 11:30:26;;;;;;;5.10;4.60;;;30.80;1.00;;;;;;6181390;23;20381;-81
2021/08/21 11:33:11;;;;;;;5.17;4.73;;;32.50;1.00;;;;;;6171637;23;20481;-82
2021/08/21 11:35:45;;;;;;;6.17;5.57;;;33.60;1.00;;;;;;6177724;23;20418;-83
2021/08/21 11:38:16;;;;;;;5.67;5.10;;;33.30;1.00;;;;;;6170571;23;21554;-83
2021/08/21 11:40:44;;;;;;;7.30;5.43;;;31.60;1.00;;;;;;6170959;23;20395;-82
2021/08/21 11:43:13;;;;;;;7.80;5.30;;;30.60;1.00;;;;;;6170000;23;20582;-82
2021/08/21 11:45:41;;;;;;;5.30;4.90;;;30.00;1.00;;;;;;6170031;23;20390;-81
2021/08/21 11:48:08;;;;;;;5.00;4.50;;;30.50;1.00;;;;;;6170223;23;20400;-82
2021/08/21 11:50:37;;;;;;;6.40;4.57;;;31.60;1.00;;;;;;6168965;23;20378;-82
2021/08/21 11:53:07;;;;;;;4.97;4.53;;;33.10;1.00;;;;;;6169069;23;20395;-83
2021/08/21 11:55:37;;;;;;;4.40;4.00;;;34.10;1.00;;;;;;6142899;23;20410;-82
2021/08/21 11:58:05;;;;;;;4.33;3.90;;;35.10;1.00;;;;;;6168625;23;20374;-83
2021/08/21 12:00:32;;;;;;;4.60;4.20;;;35.40;1.00;;;;;;6170108;23;20375;-82
2021/08/21 12:03:03;;;;;;;4.37;3.97;;;34.90;1.00;;;;;;6169142;23;20399;-79
2021/08/21 12:05:33;;;;;;;5.27;3.87;;;34.70;1.00;;;;;;6171696;23;20430;-80
2021/08/21 12:08:14;;;;;;;3.40;3.10;;;35.00;1.00;;;;;;6176575;23;20382;-80
2021/08/21 12:10:48;;;;;;;4.10;3.80;;;34.70;1.00;;;;;;6179712;23;20359;-82
2021/08/21 12:13:18;;;;;;;4.07;3.70;;;33.20;1.00;;;;;;6176592;23;20382;-81
2021/08/21 12:15:46;;;;;;;3.60;3.30;;;32.30;1.00;;;;;;6175695;23;20379;-79
2021/08/21 12:18:14;;;;;;;4.53;4.13;;;32.40;1.00;;;;;;6173428;23;20372;-82
2021/08/21 12:20:41;;;;;;;3.47;3.17;;;32.70;1.00;;;;;;6144933;23;20510;-80
2021/08/21 12:23:12;;;;;;;4.43;4.03;;;32.40;1.00;;;;;;6168232;23;20381;-80
2021/08/21 12:25:48;;;;;;;4.20;3.80;;;32.10;1.00;;;;;;6169127;23;20426;-81
2021/08/21 12:28:18;;;;;;;4.40;4.10;;;31.80;1.00;;;;;;6169459;23;20381;-80
2021/08/21 12:30:57;;;;;;;5.00;4.23;;;31.30;1.00;;;;;;6170264;23;20427;-80
2021/08/21 12:33:28;;;;;;;4.00;3.60;;;30.80;1.00;;;;;;6167237;23;20446;-81
2021/08/21 12:35:56;;;;;;;7.87;5.93;;;30.10;1.00;;;;;;6169071;23;20398;-80
2021/08/21 12:38:23;;;;;;;5.53;5.03;;;29.50;1.00;;;;;;6167117;23;20458;-79
2021/08/21 12:41:08;;;;;;;4.17;3.73;;;29.10;1.00;;;;;;6137754;23;20431;-81
2021/08/21 12:43:35;;;;;;;5.00;4.60;;;28.60;1.00;;;;;;6164314;23;20390;-79
2021/08/21 12:46:02;;;;;;;4.03;3.73;;;28.20;1.00;;;;;;6167255;23;20567;-78
2021/08/21 12:48:29;;;;;;;4.00;3.60;;;27.90;1.00;;;;;;6170299;23;20401;-80
2021/08/21 12:50:56;;;;;;;4.87;4.23;;;27.80;1.00;;;;;;6169476;23;20459;-80
2021/08/21 12:53:25;;;;;;;5.77;4.43;;;27.80;1.00;;;;;;6168747;23;20383;-80
2021/08/21 12:56:09;;;;;;;5.90;4.90;;;27.90;1.00;;;;;;6169732;23;20416;-80
2021/08/21 12:58:36;;;;;;;5.50;4.07;;;28.00;1.00;;;;;;6170960;23;20428;-80
2021/08/21 13:01:08;;;;;;;4.30;3.90;;;28.10;1.00;;;;;;6172556;23;20384;-78
2021/08/21 13:03:36;;;;;;;4.33;3.80;;;28.60;1.00;;;;;;6175738;23;20404;-79
2021/08/21 13:06:03;;;;;;;5.40;4.10;;;29.00;1.00;;;;;;6173561;23;20468;-78
2021/08/21 13:08:46;;;;;;;3.90;3.50;;;29.20;1.00;;;;;;6172758;23;20430;-78
2021/08/21 13:11:14;;;;;;;3.23;2.93;;;29.00;1.00;;;;;;6173275;23;20373;-80
2021/08/21 13:13:41;;;;;;;4.83;4.33;;;28.90;1.00;;;;;;6142216;23;20412;-79
2021/08/21 13:16:09;;;;;;;4.30;3.90;;;29.10;1.00;;;;;;6170667;23;20381;-79
2021/08/21 13:18:36;;;;;;;5.00;4.50;;;30.40;1.00;;;;;;6171545;23;20420;-80
2021/08/21 13:21:06;;;;;;;6.23;5.20;;;31.10;1.00;;;;;;6169120;23;20487;-80
2021/08/21 13:23:32;;;;;;;10.20;9.20;;;32.40;1.00;;;;;;6169585;23;20410;-80
2021/08/21 13:25:59;;;;;;;6.10;4.27;;;33.30;1.00;;;;;;6168111;23;20372;-81
2021/08/21 13:28:29;;;;;;;4.00;3.60;;;33.00;1.00;;;;;;6173026;23;20478;-82
2021/08/21 13:30:56;;;;;;;5.83;3.97;;;33.50;1.00;;;;;;6171768;23;20406;-82
2021/08/21 13:33:23;;;;;;;3.63;3.33;;;33.60;1.00;;;;;;6171286;23;20407;-83
2021/08/21 13:35:50;;;;;;;5.13;3.70;;;32.80;1.00;;;;;;6174127;23;20382;-80
2021/08/21 13:38:17;;;;;;;5.67;4.60;;;31.60;1.00;;;;;;6171917;23;20424;-83
2021/08/21 13:40:44;;;;;;;6.83;5.10;;;30.70;1.00;;;;;;6171650;23;20401;-83
2021/08/21 13:43:11;;;;;;;4.70;4.30;;;30.10;1.00;;;;;;6170712;23;20417;-83
2021/08/21 13:45:39;;;;;;;4.33;3.90;;;29.50;1.00;;;;;;6143880;23;20374;-84
2021/08/21 13:48:07;;;;;;;6.10;4.07;;;29.40;1.00;;;;;;6171509;23;20406;-82
2021/08/21 13:50:33;;;;;;;4.87;4.47;;;30.30;1.00;;;;;;6172485;23;20815;-82
2021/08/21 13:53:00;;;;;;;4.30;3.90;;;31.20;1.00;;;;;;6172367;23;20436;-82
2021/08/21 13:55:27;;;;;;;6.20;4.50;;;31.90;1.00;;;;;;6176647;23;20370;-81
2021/08/21 13:57:54;;;;;;;4.53;3.87;;;31.80;1.00;;;;;;6179211;23;20441;-82
2021/08/21 14:00:21;;;;;;;4.07;3.67;;;32.00;1.00;;;;;;6179577;23;20871;-85
2021/08/21 14:02:49;;;;;;;3.80;3.43;;;31.90;1.00;;;;;;6179351;23;20401;-82
2021/08/21 14:05:16;;;;;;;3.93;3.53;;;31.30;1.00;;;;;;6175655;23;20401;-84
2021/08/21 14:07:46;;;;;;;4.77;4.30;;;31.10;1.00;;;;;;6149953;23;20370;-84
2021/08/21 14:10:15;;;;;;;5.83;4.80;;;32.40;1.00;;;;;;6174834;23;20350;-83
2021/08/21 14:12:42;;;;;;;4.40;3.47;;;33.90;1.00;;;;;;6172928;23;20403;-83
2021/08/21 14:15:10;;;;;;;3.77;3.47;;;35.00;1.00;;;;;;6172072;23;20377;-83
2021/08/21 14:17:37;;;;;;;3.77;3.47;;;35.80;1.00;;;;;;6174090;23;20417;-83
2021/08/21 14:20:08;;;;;;;4.50;2.97;;;36.10;1.00;;;;;;6175522;23;20398;-83
2021/08/21 14:22:35;;;;;;;3.60;3.27;;;36.40;1.00;;;;;;6147784;23;20466;-84
2021/08/21 14:25:02;;;;;;;3.90;3.53;;;36.80;1.00;;;;;;6173678;23;20362;-83
2021/08/21 14:27:29;;;;;;;3.27;3.07;;;37.00;1.00;;;;;;6171802;23;20398;-83
2021/08/21 14:29:56;;;;;;;3.13;2.93;;;37.10;1.00;;;;;;6175157;23;20391;-83
2021/08/21 14:32:23;;;;;;;4.50;4.10;;;37.00;1.00;;;;;;6173861;23;20458;-82
2021/08/21 14:34:50;;;;;;;3.83;3.43;;;36.40;1.00;;;;;;6173185;23;20366;-84
2021/08/21 14:37:19;;;;;;;3.87;3.57;;;36.40;1.00;;;;;;6174715;23;20371;-82
2021/08/21 14:39:46;;;;;;;5.67;3.93;;;36.10;1.00;;;;;;6149109;23;20415;-83
2021/08/21 14:42:15;;;;;;;4.90;4.40;;;35.10;1.00;;;;;;6176326;23;21313;-83
2021/08/21 14:44:42;;;;;;;8.03;4.83;;;33.50;1.00;;;;;;6172640;23;20401;-84
2021/08/21 14:47:08;;;;;;;5.03;4.53;;;32.30;1.00;;;;;;6172756;23;20402;-84
2021/08/21 14:49:35;;;;;;;4.50;3.87;;;31.20;1.00;;;;;;6173630;23;20390;-83